sensor_id;sensor_type;location;lat;lon;timestamp;P1;durP1;ratioP1;P2;durP2;ratioP2
11681;SDS011;5897;42.640;23.310;2022-08-21T00:00:19;7.95;;;5.07;;
11681;SDS011;5897;42.640;23.310;2022-08-21T00:02:50;8.77;;;5.03;;
11681;SDS011;5897;42.640;23.310;2022-08-21T00:05:18;10.43;;;5.53;;
11681;SDS011;5897;42.640;23.310;2022-08-21T00:07:46;7.47;;;5.90;;
11681;SDS011;5897;42.640;23.310;2022-08-21T00:10:13;7.60;;;5.20;;
11681;SDS011;5897;42.640;23.310;2022-08-21T00:12:41;7.60;;;5.70;;
11681;SDS011;5897;42.640;23.310;2022-08-21T00:15:10;9.85;;;6.13;;
11681;SDS011;5897;42.640;23.310;2022-08-21T00:17:42;9.00;;;5.80;;
11681;SDS011;5897;42.640;23.310;2022-08-21T00:20:09;9.68;;;6.40;;
11681;SDS011;5897;42.640;23.310;2022-08-21T00:22:38;8.43;;;6.43;;
11681;SDS011;5897;42.640;23.310;2022-08-21T00:25:05;10.60;;;6.60;;
11681;SDS011;5897;42.640;23.310;2022-08-21T00:27:33;10.70;;;7.00;;
11681;SDS011;5897;42.640;23.310;2022-08-21T00:30:01;11.00;;;7.28;;
11681;SDS011;5897;42.640;23.310;2022-08-21T00:32:29;9.57;;;7.80;;
11681;SDS011;5897;42.640;23.310;2022-08-21T00:34:57;9.38;;;7.72;;
11681;SDS011;5897;42.640;23.310;2022-08-21T00:37:24;12.27;;;7.93;;
11681;SDS011;5897;42.640;23.310;2022-08-21T00:39:51;11.38;;;9.32;;
11681;SDS011;5897;42.640;23.310;2022-08-21T00:42:18;14.50;;;9.95;;
11681;SDS011;5897;42.640;23.310;2022-08-21T00:44:46;12.77;;;9.40;;
11681;SDS011;5897;42.640;23.310;2022-08-21T00:47:15;14.55;;;9.27;;
11681;SDS011;5897;42.640;23.310;2022-08-21T00:49:42;14.07;;;8.77;;
11681;SDS011;5897;42.640;23.310;2022-08-21T00:52:12;11.63;;;8.13;;
11681;SDS011;5897;42.640;23.310;2022-08-21T00:54:41;13.30;;;8.35;;
11681;SDS011;5897;42.640;23.310;2022-08-21T00:57:10;11.05;;;7.90;;
11681;SDS011;5897;42.640;23.310;2022-08-21T00:59:43;8.70;;;6.97;;
11681;SDS011;5897;42.640;23.310;2022-08-21T01:02:11;9.40;;;7.05;;
11681;SDS011;5897;42.640;23.310;2022-08-21T01:04:38;7.57;;;6.30;;
11681;SDS011;5897;42.640;23.310;2022-08-21T01:07:05;10.90;;;7.20;;
11681;SDS011;5897;42.640;23.310;2022-08-21T01:09:34;9.40;;;6.97;;
11681;SDS011;5897;42.640;23.310;2022-08-21T01:12:02;9.45;;;6.93;;
11681;SDS011;5897;42.640;23.310;2022-08-21T01:14:30;6.53;;;5.63;;
11681;SDS011;5897;42.640;23.310;2022-08-21T01:16:58;7.93;;;4.75;;
11681;SDS011;5897;42.640;23.310;2022-08-21T01:19:28;6.95;;;4.95;;
11681;SDS011;5897;42.640;23.310;2022-08-21T01:21:56;8.27;;;4.90;;
11681;SDS011;5897;42.640;23.310;2022-08-21T01:24:24;6.35;;;3.83;;
11681;SDS011;5897;42.640;23.310;2022-08-21T01:26:51;7.50;;;4.10;;
11681;SDS011;5897;42.640;23.310;2022-08-21T01:29:23;5.43;;;4.10;;
11681;SDS011;5897;42.640;23.310;2022-08-21T01:31:56;8.75;;;4.88;;
11681;SDS011;5897;42.640;23.310;2022-08-21T01:34:24;6.38;;;3.95;;
11681;SDS011;5897;42.640;23.310;2022-08-21T01:36:51;8.20;;;4.35;;
11681;SDS011;5897;42.640;23.310;2022-08-21T01:39:19;7.88;;;4.30;;
11681;SDS011;5897;42.640;23.310;2022-08-21T01:41:46;9.57;;;4.00;;
11681;SDS011;5897;42.640;23.310;2022-08-21T01:44:12;6.40;;;3.20;;
11681;SDS011;5897;42.640;23.310;2022-08-21T01:46:39;6.07;;;4.05;;
11681;SDS011;5897;42.640;23.310;2022-08-21T01:49:06;7.28;;;3.33;;
11681;SDS011;5897;42.640;23.310;2022-08-21T01:51:33;5.80;;;3.45;;
11681;SDS011;5897;42.640;23.310;2022-08-21T01:54:00;6.22;;;3.70;;
11681;SDS011;5897;42.640;23.310;2022-08-21T01:56:28;6.78;;;3.67;;
11681;SDS011;5897;42.640;23.310;2022-08-21T01:59:01;3.85;;;3.13;;
11681;SDS011;5897;42.640;23.310;2022-08-21T02:01:28;6.15;;;3.60;;
11681;SDS011;5897;42.640;23.310;2022-08-21T02:03:55;6.38;;;3.40;;
11681;SDS011;5897;42.640;23.310;2022-08-21T02:06:22;6.35;;;3.88;;
11681;SDS011;5897;42.640;23.310;2022-08-21T02:08:48;8.52;;;3.22;;
11681;SDS011;5897;42.640;23.310;2022-08-21T02:11:16;7.47;;;3.53;;
11681;SDS011;5897;42.640;23.310;2022-08-21T02:13:44;6.25;;;3.70;;
11681;SDS011;5897;42.640;23.310;2022-08-21T02:16:11;8.05;;;3.72;;
11681;SDS011;5897;42.640;23.310;2022-08-21T02:18:38;6.38;;;3.63;;
11681;SDS011;5897;42.640;23.310;2022-08-21T02:21:05;10.52;;;3.80;;
11681;SDS011;5897;42.640;23.310;2022-08-21T02:23:32;7.50;;;3.55;;
11681;SDS011;5897;42.640;23.310;2022-08-21T02:25:59;6.07;;;3.65;;
11681;SDS011;5897;42.640;23.310;2022-08-21T02:28:27;6.10;;;3.50;;
11681;SDS011;5897;42.640;23.310;2022-08-21T02:30:56;7.38;;;3.78;;
11681;SDS011;5897;42.640;23.310;2022-08-21T02:33:23;7.43;;;3.72;;
11681;SDS011;5897;42.640;23.310;2022-08-21T02:35:51;6.25;;;4.25;;
11681;SDS011;5897;42.640;23.310;2022-08-21T02:38:19;9.60;;;4.40;;
11681;SDS011;5897;42.640;23.310;2022-08-21T02:40:48;7.07;;;3.95;;
11681;SDS011;5897;42.640;23.310;2022-08-21T02:43:16;6.57;;;3.78;;
11681;SDS011;5897;42.640;23.310;2022-08-21T02:45:44;6.45;;;3.60;;
11681;SDS011;5897;42.640;23.310;2022-08-21T02:48:14;5.82;;;3.25;;
11681;SDS011;5897;42.640;23.310;2022-08-21T02:50:44;4.85;;;3.10;;
11681;SDS011;5897;42.640;23.310;2022-08-21T02:53:13;5.38;;;3.17;;
11681;SDS011;5897;42.640;23.310;2022-08-21T02:55:42;6.07;;;3.03;;
11681;SDS011;5897;42.640;23.310;2022-08-21T02:58:10;7.60;;;3.15;;
11681;SDS011;5897;42.640;23.310;2022-08-21T03:00:37;6.07;;;3.22;;
11681;SDS011;5897;42.640;23.310;2022-08-21T03:03:04;5.32;;;2.45;;
11681;SDS011;5897;42.640;23.310;2022-08-21T03:05:34;5.72;;;2.83;;
11681;SDS011;5897;42.640;23.310;2022-08-21T03:08:04;4.20;;;2.80;;
11681;SDS011;5897;42.640;23.310;2022-08-21T03:10:34;5.82;;;3.20;;
11681;SDS011;5897;42.640;23.310;2022-08-21T03:13:01;6.57;;;3.58;;
11681;SDS011;5897;42.640;23.310;2022-08-21T03:15:29;6.53;;;3.10;;
11681;SDS011;5897;42.640;23.310;2022-08-21T03:17:56;4.30;;;3.42;;
11681;SDS011;5897;42.640;23.310;2022-08-21T03:20:24;7.32;;;3.58;;
11681;SDS011;5897;42.640;23.310;2022-08-21T03:22:54;4.75;;;3.00;;
11681;SDS011;5897;42.640;23.310;2022-08-21T03:25:21;4.57;;;3.03;;
11681;SDS011;5897;42.640;23.310;2022-08-21T03:27:49;6.00;;;2.85;;
11681;SDS011;5897;42.640;23.310;2022-08-21T03:30:16;5.45;;;3.17;;
11681;SDS011;5897;42.640;23.310;2022-08-21T03:32:44;8.35;;;2.92;;
11681;SDS011;5897;42.640;23.310;2022-08-21T03:35:11;4.15;;;2.85;;
11681;SDS011;5897;42.640;23.310;2022-08-21T03:37:39;4.75;;;2.75;;
11681;SDS011;5897;42.640;23.310;2022-08-21T03:40:08;6.60;;;3.45;;
11681;SDS011;5897;42.640;23.310;2022-08-21T03:42:40;6.22;;;3.40;;
11681;SDS011;5897;42.640;23.310;2022-08-21T03:45:07;8.38;;;3.45;;
11681;SDS011;5897;42.640;23.310;2022-08-21T03:47:35;8.60;;;3.03;;
11681;SDS011;5897;42.640;23.310;2022-08-21T03:50:02;8.18;;;3.55;;
11681;SDS011;5897;42.640;23.310;2022-08-21T03:52:29;9.18;;;3.25;;
11681;SDS011;5897;42.640;23.310;2022-08-21T03:54:56;6.35;;;2.92;;
11681;SDS011;5897;42.640;23.310;2022-08-21T03:57:24;9.52;;;3.25;;
11681;SDS011;5897;42.640;23.310;2022-08-21T03:59:51;10.00;;;3.17;;
11681;SDS011;5897;42.640;23.310;2022-08-21T04:02:18;9.18;;;3.45;;
11681;SDS011;5897;42.640;23.310;2022-08-21T04:04:47;4.90;;;3.20;;
11681;SDS011;5897;42.640;23.310;2022-08-21T04:07:13;8.90;;;3.67;;
11681;SDS011;5897;42.640;23.310;2022-08-21T04:09:40;6.97;;;3.25;;
11681;SDS011;5897;42.640;23.310;2022-08-21T04:12:07;6.15;;;3.17;;
11681;SDS011;5897;42.640;23.310;2022-08-21T04:14:36;8.40;;;3.80;;
11681;SDS011;5897;42.640;23.310;2022-08-21T04:17:02;8.02;;;3.55;;
11681;SDS011;5897;42.640;23.310;2022-08-21T04:19:30;6.65;;;3.22;;
11681;SDS011;5897;42.640;23.310;2022-08-21T04:21:57;6.07;;;3.65;;
11681;SDS011;5897;42.640;23.310;2022-08-21T04:24:23;5.22;;;3.40;;
11681;SDS011;5897;42.640;23.310;2022-08-21T04:26:50;5.43;;;3.40;;
11681;SDS011;5897;42.640;23.310;2022-08-21T04:29:17;6.53;;;3.17;;
11681;SDS011;5897;42.640;23.310;2022-08-21T04:31:46;8.43;;;3.30;;
11681;SDS011;5897;42.640;23.310;2022-08-21T04:34:12;6.55;;;3.40;;
11681;SDS011;5897;42.640;23.310;2022-08-21T04:36:39;5.10;;;3.30;;
11681;SDS011;5897;42.640;23.310;2022-08-21T04:39:06;5.93;;;3.70;;
11681;SDS011;5897;42.640;23.310;2022-08-21T04:41:33;9.15;;;3.55;;
11681;SDS011;5897;42.640;23.310;2022-08-21T04:44:00;4.70;;;3.20;;
11681;SDS011;5897;42.640;23.310;2022-08-21T04:46:27;5.55;;;3.35;;
11681;SDS011;5897;42.640;23.310;2022-08-21T04:48:55;5.05;;;3.53;;
11681;SDS011;5897;42.640;23.310;2022-08-21T04:51:23;6.60;;;3.60;;
11681;SDS011;5897;42.640;23.310;2022-08-21T04:53:52;6.10;;;3.72;;
11681;SDS011;5897;42.640;23.310;2022-08-21T04:56:25;6.53;;;3.90;;
11681;SDS011;5897;42.640;23.310;2022-08-21T04:58:57;6.25;;;3.80;;
11681;SDS011;5897;42.640;23.310;2022-08-21T05:01:28;6.97;;;4.22;;
11681;SDS011;5897;42.640;23.310;2022-08-21T05:03:58;7.57;;;4.63;;
11681;SDS011;5897;42.640;23.310;2022-08-21T05:06:26;8.73;;;4.82;;
11681;SDS011;5897;42.640;23.310;2022-08-21T05:08:57;9.88;;;4.30;;
11681;SDS011;5897;42.640;23.310;2022-08-21T05:11:24;7.00;;;4.10;;
11681;SDS011;5897;42.640;23.310;2022-08-21T05:13:51;8.30;;;4.20;;
11681;SDS011;5897;42.640;23.310;2022-08-21T05:16:18;8.90;;;4.50;;
11681;SDS011;5897;42.640;23.310;2022-08-21T05:18:44;6.95;;;4.68;;
11681;SDS011;5897;42.640;23.310;2022-08-21T05:21:12;7.13;;;4.63;;
11681;SDS011;5897;42.640;23.310;2022-08-21T05:23:39;5.72;;;4.70;;
11681;SDS011;5897;42.640;23.310;2022-08-21T05:26:06;5.72;;;4.07;;
11681;SDS011;5897;42.640;23.310;2022-08-21T05:28:33;5.35;;;3.67;;
11681;SDS011;5897;42.640;23.310;2022-08-21T05:30:59;5.70;;;3.28;;
11681;SDS011;5897;42.640;23.310;2022-08-21T05:33:26;8.27;;;4.20;;
11681;SDS011;5897;42.640;23.310;2022-08-21T05:35:54;8.68;;;4.60;;
11681;SDS011;5897;42.640;23.310;2022-08-21T05:38:23;6.38;;;4.30;;
11681;SDS011;5897;42.640;23.310;2022-08-21T05:40:50;7.00;;;4.55;;
11681;SDS011;5897;42.640;23.310;2022-08-21T05:43:16;7.70;;;4.50;;
11681;SDS011;5897;42.640;23.310;2022-08-21T05:45:43;8.55;;;4.68;;
11681;SDS011;5897;42.640;23.310;2022-08-21T05:48:11;10.18;;;5.00;;
11681;SDS011;5897;42.640;23.310;2022-08-21T05:50:39;8.65;;;4.70;;
11681;SDS011;5897;42.640;23.310;2022-08-21T05:53:07;6.93;;;5.10;;
11681;SDS011;5897;42.640;23.310;2022-08-21T05:55:37;11.88;;;6.60;;
11681;SDS011;5897;42.640;23.310;2022-08-21T05:58:04;8.60;;;5.68;;
11681;SDS011;5897;42.640;23.310;2022-08-21T06:00:31;8.48;;;5.10;;
11681;SDS011;5897;42.640;23.310;2022-08-21T06:02:58;9.30;;;5.25;;
11681;SDS011;5897;42.640;23.310;2022-08-21T06:05:25;8.90;;;4.80;;
11681;SDS011;5897;42.640;23.310;2022-08-21T06:07:52;7.18;;;4.75;;
11681;SDS011;5897;42.640;23.310;2022-08-21T06:10:19;7.15;;;4.53;;
11681;SDS011;5897;42.640;23.310;2022-08-21T06:12:48;8.85;;;6.00;;
11681;SDS011;5897;42.640;23.310;2022-08-21T06:15:19;7.80;;;4.65;;
11681;SDS011;5897;42.640;23.310;2022-08-21T06:17:46;10.68;;;6.78;;
11681;SDS011;5897;42.640;23.310;2022-08-21T06:20:13;7.38;;;5.15;;
11681;SDS011;5897;42.640;23.310;2022-08-21T06:22:39;8.65;;;5.65;;
11681;SDS011;5897;42.640;23.310;2022-08-21T06:25:06;7.13;;;4.95;;
11681;SDS011;5897;42.640;23.310;2022-08-21T06:27:34;12.00;;;5.40;;
11681;SDS011;5897;42.640;23.310;2022-08-21T06:30:02;11.70;;;5.03;;
11681;SDS011;5897;42.640;23.310;2022-08-21T06:32:29;7.53;;;4.90;;
11681;SDS011;5897;42.640;23.310;2022-08-21T06:34:56;9.43;;;5.57;;
11681;SDS011;5897;42.640;23.310;2022-08-21T06:37:23;8.88;;;5.55;;
11681;SDS011;5897;42.640;23.310;2022-08-21T06:39:50;8.25;;;5.05;;
11681;SDS011;5897;42.640;23.310;2022-08-21T06:42:17;5.95;;;4.40;;
11681;SDS011;5897;42.640;23.310;2022-08-21T06:44:44;7.78;;;4.40;;
11681;SDS011;5897;42.640;23.310;2022-08-21T06:47:12;6.20;;;4.47;;
11681;SDS011;5897;42.640;23.310;2022-08-21T06:49:39;8.52;;;4.15;;
11681;SDS011;5897;42.640;23.310;2022-08-21T06:52:07;7.25;;;4.93;;
11681;SDS011;5897;42.640;23.310;2022-08-21T06:54:35;5.63;;;4.32;;
11681;SDS011;5897;42.640;23.310;2022-08-21T06:57:02;9.38;;;4.32;;
11681;SDS011;5897;42.640;23.310;2022-08-21T06:59:29;6.95;;;4.40;;
11681;SDS011;5897;42.640;23.310;2022-08-21T07:01:55;5.18;;;3.83;;
11681;SDS011;5897;42.640;23.310;2022-08-21T07:04:23;6.78;;;3.83;;
11681;SDS011;5897;42.640;23.310;2022-08-21T07:06:50;4.97;;;3.75;;
11681;SDS011;5897;42.640;23.310;2022-08-21T07:09:17;6.85;;;3.63;;
11681;SDS011;5897;42.640;23.310;2022-08-21T07:11:44;6.75;;;3.97;;
11681;SDS011;5897;42.640;23.310;2022-08-21T07:14:16;6.30;;;4.05;;
11681;SDS011;5897;42.640;23.310;2022-08-21T07:16:43;5.53;;;3.83;;
11681;SDS011;5897;42.640;23.310;2022-08-21T07:19:10;7.75;;;4.20;;
11681;SDS011;5897;42.640;23.310;2022-08-21T07:21:38;10.35;;;5.10;;
11681;SDS011;5897;42.640;23.310;2022-08-21T07:24:05;8.38;;;4.30;;
11681;SDS011;5897;42.640;23.310;2022-08-21T07:26:32;6.18;;;4.13;;
11681;SDS011;5897;42.640;23.310;2022-08-21T07:28:59;6.35;;;4.32;;
11681;SDS011;5897;42.640;23.310;2022-08-21T07:31:25;5.95;;;4.03;;
11681;SDS011;5897;42.640;23.310;2022-08-21T07:33:54;7.95;;;3.70;;
11681;SDS011;5897;42.640;23.310;2022-08-21T07:36:21;4.88;;;3.80;;
11681;SDS011;5897;42.640;23.310;2022-08-21T07:38:50;6.60;;;4.13;;
11681;SDS011;5897;42.640;23.310;2022-08-21T07:41:17;5.93;;;3.80;;
11681;SDS011;5897;42.640;23.310;2022-08-21T07:43:46;6.00;;;4.20;;
11681;SDS011;5897;42.640;23.310;2022-08-21T07:46:13;5.63;;;3.60;;
11681;SDS011;5897;42.640;23.310;2022-08-21T07:48:40;7.13;;;4.25;;
11681;SDS011;5897;42.640;23.310;2022-08-21T07:51:08;5.43;;;3.55;;
11681;SDS011;5897;42.640;23.310;2022-08-21T07:53:37;7.88;;;3.92;;
11681;SDS011;5897;42.640;23.310;2022-08-21T07:56:06;4.97;;;3.60;;
11681;SDS011;5897;42.640;23.310;2022-08-21T07:58:35;7.35;;;3.53;;
11681;SDS011;5897;42.640;23.310;2022-08-21T08:01:02;5.32;;;3.47;;
11681;SDS011;5897;42.640;23.310;2022-08-21T08:03:30;8.48;;;4.18;;
11681;SDS011;5897;42.640;23.310;2022-08-21T08:05:57;5.63;;;3.83;;
11681;SDS011;5897;42.640;23.310;2022-08-21T08:08:24;6.88;;;4.10;;
11681;SDS011;5897;42.640;23.310;2022-08-21T08:10:51;6.38;;;4.35;;
11681;SDS011;5897;42.640;23.310;2022-08-21T08:13:20;9.43;;;4.57;;
11681;SDS011;5897;42.640;23.310;2022-08-21T08:15:47;5.85;;;4.43;;
11681;SDS011;5897;42.640;23.310;2022-08-21T08:18:14;6.22;;;4.13;;
11681;SDS011;5897;42.640;23.310;2022-08-21T08:20:40;8.07;;;4.63;;
11681;SDS011;5897;42.640;23.310;2022-08-21T08:23:09;10.75;;;4.20;;
11681;SDS011;5897;42.640;23.310;2022-08-21T08:25:36;8.75;;;3.92;;
11681;SDS011;5897;42.640;23.310;2022-08-21T08:28:03;6.30;;;4.00;;
11681;SDS011;5897;42.640;23.310;2022-08-21T08:30:32;6.25;;;4.20;;
11681;SDS011;5897;42.640;23.310;2022-08-21T08:32:59;6.00;;;3.60;;
11681;SDS011;5897;42.640;23.310;2022-08-21T08:35:26;7.32;;;4.35;;
11681;SDS011;5897;42.640;23.310;2022-08-21T08:37:53;7.45;;;5.13;;
11681;SDS011;5897;42.640;23.310;2022-08-21T08:40:22;7.38;;;5.22;;
11681;SDS011;5897;42.640;23.310;2022-08-21T08:42:58;7.13;;;4.82;;
11681;SDS011;5897;42.640;23.310;2022-08-21T08:45:25;8.90;;;4.82;;
11681;SDS011;5897;42.640;23.310;2022-08-21T08:47:56;8.52;;;4.90;;
11681;SDS011;5897;42.640;23.310;2022-08-21T08:50:28;8.27;;;4.68;;
11681;SDS011;5897;42.640;23.310;2022-08-21T08:53:05;7.40;;;4.63;;
11681;SDS011;5897;42.640;23.310;2022-08-21T08:55:36;10.80;;;4.95;;
11681;SDS011;5897;42.640;23.310;2022-08-21T08:58:05;8.15;;;4.97;;
11681;SDS011;5897;42.640;23.310;2022-08-21T09:00:32;9.60;;;4.50;;
11681;SDS011;5897;42.640;23.310;2022-08-21T09:03:01;5.70;;;4.40;;
11681;SDS011;5897;42.640;23.310;2022-08-21T09:05:29;7.93;;;4.70;;
11681;SDS011;5897;42.640;23.310;2022-08-21T09:08:11;8.43;;;4.88;;
11681;SDS011;5897;42.640;23.310;2022-08-21T09:10:57;8.52;;;4.65;;
11681;SDS011;5897;42.640;23.310;2022-08-21T09:13:31;8.45;;;3.90;;
11681;SDS011;5897;42.640;23.310;2022-08-21T09:16:09;7.53;;;4.18;;
11681;SDS011;5897;42.640;23.310;2022-08-21T09:18:48;7.43;;;4.25;;
11681;SDS011;5897;42.640;23.310;2022-08-21T09:21:28;7.93;;;4.22;;
11681;SDS011;5897;42.640;23.310;2022-08-21T09:24:05;9.40;;;4.13;;
11681;SDS011;5897;42.640;23.310;2022-08-21T09:26:44;8.40;;;4.50;;
11681;SDS011;5897;42.640;23.310;2022-08-21T09:29:19;9.50;;;4.10;;
11681;SDS011;5897;42.640;23.310;2022-08-21T09:31:49;7.70;;;4.15;;
11681;SDS011;5897;42.640;23.310;2022-08-21T09:34:24;7.20;;;3.85;;
11681;SDS011;5897;42.640;23.310;2022-08-21T09:36:53;7.38;;;3.58;;
11681;SDS011;5897;42.640;23.310;2022-08-21T09:39:23;6.38;;;4.30;;
11681;SDS011;5897;42.640;23.310;2022-08-21T09:41:55;8.27;;;4.40;;
11681;SDS011;5897;42.640;23.310;2022-08-21T09:44:24;5.88;;;4.00;;
11681;SDS011;5897;42.640;23.310;2022-08-21T09:46:52;7.97;;;4.15;;
11681;SDS011;5897;42.640;23.310;2022-08-21T09:49:27;8.90;;;4.35;;
11681;SDS011;5897;42.640;23.310;2022-08-21T09:51:55;7.15;;;5.85;;
11681;SDS011;5897;42.640;23.310;2022-08-21T09:54:24;6.38;;;4.65;;
11681;SDS011;5897;42.640;23.310;2022-08-21T09:56:56;11.15;;;4.55;;
11681;SDS011;5897;42.640;23.310;2022-08-21T09:59:42;9.60;;;4.70;;
11681;SDS011;5897;42.640;23.310;2022-08-21T10:02:22;10.82;;;4.57;;
11681;SDS011;5897;42.640;23.310;2022-08-21T10:04:54;7.97;;;4.55;;
11681;SDS011;5897;42.640;23.310;2022-08-21T10:07:24;7.47;;;4.60;;
11681;SDS011;5897;42.640;23.310;2022-08-21T10:10:00;7.72;;;4.60;;
11681;SDS011;5897;42.640;23.310;2022-08-21T10:12:32;8.88;;;4.78;;
11681;SDS011;5897;42.640;23.310;2022-08-21T10:15:08;11.30;;;4.88;;
11681;SDS011;5897;42.640;23.310;2022-08-21T10:17:44;7.75;;;4.60;;
11681;SDS011;5897;42.640;23.310;2022-08-21T10:20:17;5.30;;;4.43;;
11681;SDS011;5897;42.640;23.310;2022-08-21T10:22:51;7.30;;;4.45;;
11681;SDS011;5897;42.640;23.310;2022-08-21T10:25:29;7.40;;;5.10;;
11681;SDS011;5897;42.640;23.310;2022-08-21T10:28:04;6.43;;;4.18;;
11681;SDS011;5897;42.640;23.310;2022-08-21T10:30:39;7.40;;;4.70;;
11681;SDS011;5897;42.640;23.310;2022-08-21T10:33:25;8.00;;;4.75;;
11681;SDS011;5897;42.640;23.310;2022-08-21T10:36:04;9.55;;;4.82;;
11681;SDS011;5897;42.640;23.310;2022-08-21T10:38:53;9.27;;;4.10;;
11681;SDS011;5897;42.640;23.310;2022-08-21T10:41:27;6.55;;;4.30;;
11681;SDS011;5897;42.640;23.310;2022-08-21T10:44:08;8.40;;;4.15;;
11681;SDS011;5897;42.640;23.310;2022-08-21T10:46:47;6.28;;;4.00;;
11681;SDS011;5897;42.640;23.310;2022-08-21T10:49:22;8.80;;;4.57;;
11681;SDS011;5897;42.640;23.310;2022-08-21T10:52:02;6.32;;;4.32;;
11681;SDS011;5897;42.640;23.310;2022-08-21T10:54:46;6.20;;;3.95;;
11681;SDS011;5897;42.640;23.310;2022-08-21T10:57:19;9.23;;;5.40;;
11681;SDS011;5897;42.640;23.310;2022-08-21T10:59:55;8.32;;;4.55;;
11681;SDS011;5897;42.640;23.310;2022-08-21T11:02:27;6.05;;;3.97;;
11681;SDS011;5897;42.640;23.310;2022-08-21T11:04:59;6.45;;;4.10;;
11681;SDS011;5897;42.640;23.310;2022-08-21T11:07:30;4.90;;;3.78;;
11681;SDS011;5897;42.640;23.310;2022-08-21T11:10:03;6.53;;;3.65;;
11681;SDS011;5897;42.640;23.310;2022-08-21T11:12:38;4.78;;;3.75;;
11681;SDS011;5897;42.640;23.310;2022-08-21T11:15:11;6.78;;;3.65;;
11681;SDS011;5897;42.640;23.310;2022-08-21T11:17:49;6.03;;;3.50;;
11681;SDS011;5897;42.640;23.310;2022-08-21T11:20:22;8.10;;;3.95;;
11681;SDS011;5897;42.640;23.310;2022-08-21T11:22:58;5.72;;;3.50;;
11681;SDS011;5897;42.640;23.310;2022-08-21T11:25:33;11.77;;;4.18;;
11681;SDS011;5897;42.640;23.310;2022-08-21T11:28:05;5.55;;;3.15;;
11681;SDS011;5897;42.640;23.310;2022-08-21T11:30:39;4.30;;;3.28;;
11681;SDS011;5897;42.640;23.310;2022-08-21T11:33:18;4.63;;;3.47;;
11681;SDS011;5897;42.640;23.310;2022-08-21T11:35:56;7.13;;;4.05;;
11681;SDS011;5897;42.640;23.310;2022-08-21T11:38:33;6.07;;;3.40;;
11681;SDS011;5897;42.640;23.310;2022-08-21T11:41:06;5.38;;;3.45;;
11681;SDS011;5897;42.640;23.310;2022-08-21T11:43:43;5.95;;;3.42;;
11681;SDS011;5897;42.640;23.310;2022-08-21T11:46:16;5.80;;;2.92;;
11681;SDS011;5897;42.640;23.310;2022-08-21T11:49:06;5.57;;;3.40;;
11681;SDS011;5897;42.640;23.310;2022-08-21T11:51:47;6.45;;;3.38;;
11681;SDS011;5897;42.640;23.310;2022-08-21T11:54:27;5.00;;;3.63;;
11681;SDS011;5897;42.640;23.310;2022-08-21T11:57:02;5.93;;;3.63;;
11681;SDS011;5897;42.640;23.310;2022-08-21T11:59:35;5.70;;;3.60;;
11681;SDS011;5897;42.640;23.310;2022-08-21T12:02:06;5.50;;;3.67;;
11681;SDS011;5897;42.640;23.310;2022-08-21T12:04:42;6.28;;;3.35;;
11681;SDS011;5897;42.640;23.310;2022-08-21T12:07:12;8.85;;;3.67;;
11681;SDS011;5897;42.640;23.310;2022-08-21T12:09:53;3.72;;;3.20;;
11681;SDS011;5897;42.640;23.310;2022-08-21T12:12:23;6.97;;;3.90;;
11681;SDS011;5897;42.640;23.310;2022-08-21T12:15:15;7.07;;;3.78;;
11681;SDS011;5897;42.640;23.310;2022-08-21T12:17:50;6.28;;;3.97;;
11681;SDS011;5897;42.640;23.310;2022-08-21T12:20:22;6.43;;;3.80;;
11681;SDS011;5897;42.640;23.310;2022-08-21T12:22:54;4.25;;;3.40;;
11681;SDS011;5897;42.640;23.310;2022-08-21T12:25:37;6.22;;;3.10;;
11681;SDS011;5897;42.640;23.310;2022-08-21T12:28:07;5.72;;;3.53;;
11681;SDS011;5897;42.640;23.310;2022-08-21T12:30:36;6.25;;;3.53;;
11681;SDS011;5897;42.640;23.310;2022-08-21T12:33:09;4.50;;;3.35;;
11681;SDS011;5897;42.640;23.310;2022-08-21T12:35:48;6.07;;;3.50;;
11681;SDS011;5897;42.640;23.310;2022-08-21T12:38:18;6.07;;;3.25;;
11681;SDS011;5897;42.640;23.310;2022-08-21T12:40:50;6.15;;;3.42;;
11681;SDS011;5897;42.640;23.310;2022-08-21T12:43:21;5.43;;;3.55;;
11681;SDS011;5897;42.640;23.310;2022-08-21T12:45:52;5.43;;;3.80;;
11681;SDS011;5897;42.640;23.310;2022-08-21T12:48:20;6.82;;;3.90;;
11681;SDS011;5897;42.640;23.310;2022-08-21T12:50:50;5.68;;;3.40;;
11681;SDS011;5897;42.640;23.310;2022-08-21T12:53:23;6.47;;;3.85;;
11681;SDS011;5897;42.640;23.310;2022-08-21T12:55:55;6.13;;;3.60;;
11681;SDS011;5897;42.640;23.310;2022-08-21T12:58:27;5.53;;;3.60;;
11681;SDS011;5897;42.640;23.310;2022-08-21T13:00:55;6.07;;;3.70;;
11681;SDS011;5897;42.640;23.310;2022-08-21T13:03:26;8.10;;;3.97;;
11681;SDS011;5897;42.640;23.310;2022-08-21T13:05:53;6.20;;;3.58;;
11681;SDS011;5897;42.640;23.310;2022-08-21T13:08:21;6.43;;;3.70;;
11681;SDS011;5897;42.640;23.310;2022-08-21T13:10:56;7.97;;;4.13;;
11681;SDS011;5897;42.640;23.310;2022-08-21T13:13:27;5.13;;;3.80;;
11681;SDS011;5897;42.640;23.310;2022-08-21T13:15:59;5.10;;;4.10;;
11681;SDS011;5897;42.640;23.310;2022-08-21T13:18:31;9.30;;;4.18;;
11681;SDS011;5897;42.640;23.310;2022-08-21T13:21:06;4.22;;;3.30;;
11681;SDS011;5897;42.640;23.310;2022-08-21T13:23:34;9.65;;;3.80;;
11681;SDS011;5897;42.640;23.310;2022-08-21T13:26:11;4.90;;;3.67;;
11681;SDS011;5897;42.640;23.310;2022-08-21T13:28:39;6.40;;;3.90;;
11681;SDS011;5897;42.640;23.310;2022-08-21T13:31:06;8.05;;;3.42;;
11681;SDS011;5897;42.640;23.310;2022-08-21T13:33:35;6.07;;;3.72;;
11681;SDS011;5897;42.640;23.310;2022-08-21T13:36:05;5.70;;;3.60;;
11681;SDS011;5897;42.640;23.310;2022-08-21T13:38:36;5.75;;;3.33;;
11681;SDS011;5897;42.640;23.310;2022-08-21T13:41:10;4.68;;;3.40;;
11681;SDS011;5897;42.640;23.310;2022-08-21T13:43:48;4.32;;;3.30;;
11681;SDS011;5897;42.640;23.310;2022-08-21T13:46:24;6.95;;;3.95;;
11681;SDS011;5897;42.640;23.310;2022-08-21T13:48:55;5.93;;;3.67;;
11681;SDS011;5897;42.640;23.310;2022-08-21T13:51:22;6.82;;;4.18;;
11681;SDS011;5897;42.640;23.310;2022-08-21T13:53:53;6.07;;;3.92;;
11681;SDS011;5897;42.640;23.310;2022-08-21T13:56:26;6.78;;;4.03;;
11681;SDS011;5897;42.640;23.310;2022-08-21T13:58:55;8.48;;;4.00;;
11681;SDS011;5897;42.640;23.310;2022-08-21T14:01:25;8.18;;;4.43;;
11681;SDS011;5897;42.640;23.310;2022-08-21T14:03:55;5.88;;;4.13;;
11681;SDS011;5897;42.640;23.310;2022-08-21T14:06:27;6.38;;;4.90;;
11681;SDS011;5897;42.640;23.310;2022-08-21T14:08:59;8.75;;;4.32;;
11681;SDS011;5897;42.640;23.310;2022-08-21T14:11:32;7.35;;;3.70;;
11681;SDS011;5897;42.640;23.310;2022-08-21T14:14:01;6.22;;;4.00;;
11681;SDS011;5897;42.640;23.310;2022-08-21T14:16:41;5.60;;;4.18;;
11681;SDS011;5897;42.640;23.310;2022-08-21T14:19:10;7.93;;;4.72;;
11681;SDS011;5897;42.640;23.310;2022-08-21T14:21:45;7.95;;;4.80;;
11681;SDS011;5897;42.640;23.310;2022-08-21T14:24:12;6.43;;;4.82;;
11681;SDS011;5897;42.640;23.310;2022-08-21T14:26:50;9.63;;;4.60;;
11681;SDS011;5897;42.640;23.310;2022-08-21T14:29:21;9.35;;;5.53;;
11681;SDS011;5897;42.640;23.310;2022-08-21T14:31:54;8.88;;;4.97;;
11681;SDS011;5897;42.640;23.310;2022-08-21T14:34:22;9.60;;;5.10;;
11681;SDS011;5897;42.640;23.310;2022-08-21T14:36:50;7.65;;;4.70;;
11681;SDS011;5897;42.640;23.310;2022-08-21T14:39:18;6.63;;;4.65;;
11681;SDS011;5897;42.640;23.310;2022-08-21T14:41:46;7.25;;;4.50;;
11681;SDS011;5897;42.640;23.310;2022-08-21T14:44:14;6.13;;;4.15;;
11681;SDS011;5897;42.640;23.310;2022-08-21T14:46:42;7.15;;;4.18;;
11681;SDS011;5897;42.640;23.310;2022-08-21T14:49:10;7.22;;;4.63;;
11681;SDS011;5897;42.640;23.310;2022-08-21T14:51:37;11.25;;;5.05;;
11681;SDS011;5897;42.640;23.310;2022-08-21T14:54:04;7.50;;;5.07;;
11681;SDS011;5897;42.640;23.310;2022-08-21T14:56:31;6.68;;;5.22;;
11681;SDS011;5897;42.640;23.310;2022-08-21T14:59:00;7.30;;;5.32;;
11681;SDS011;5897;42.640;23.310;2022-08-21T15:01:30;8.05;;;5.53;;